createdAt,value
2022-12-24T00:02:45.721Z,25.30
2022-12-24T00:05:52.832Z,29.02
2022-12-24T00:08:58.611Z,28.83
2022-12-24T00:12:04.826Z,28.55
2022-12-24T00:15:10.401Z,27.85
2022-12-24T00:18:15.575Z,25.88
2022-12-24T00:21:21.096Z,26.02
2022-12-24T00:24:26.666Z,30.10
2022-12-24T00:27:33.981Z,27.27
2022-12-24T00:30:40.394Z,28.75
2022-12-24T00:33:46.608Z,28.20
2022-12-24T00:36:53.079Z,27.60
2022-12-24T00:39:58.933Z,28.25
2022-12-24T00:43:04.342Z,27.60
2022-12-24T00:46:09.683Z,26.20
2022-12-24T00:49:15.589Z,30.20
2022-12-24T00:52:21.771Z,29.82
2022-12-24T00:55:27.102Z,32.13
2022-12-24T00:58:31.827Z,26.45
2022-12-24T01:01:38.098Z,29.60
2022-12-24T01:05:01.655Z,30.70
2022-12-24T01:08:08.907Z,31.25
2022-12-24T01:11:14.658Z,30.72
2022-12-24T01:14:20.964Z,30.88
2022-12-24T01:17:27.305Z,30.75
2022-12-24T01:20:34.547Z,33.00
2022-12-24T01:23:39.996Z,32.20
2022-12-24T01:26:45.766Z,29.40
2022-12-24T01:29:51.935Z,28.95
2022-12-24T01:32:58.396Z,32.08
2022-12-24T01:36:04.371Z,31.45
2022-12-24T01:39:09.370Z,31.40
2022-12-24T01:42:32.516Z,30.60
2022-12-24T01:46:00.651Z,30.08
2022-12-24T01:49:15.119Z,28.20
2022-12-24T01:52:26.440Z,30.80
2022-12-24T01:55:32.095Z,28.45
2022-12-24T01:58:37.956Z,29.37
2022-12-24T02:01:43.447Z,30.02
2022-12-24T02:04:53.637Z,29.98
2022-12-24T02:07:59.292Z,29.10
2022-12-24T02:11:06.141Z,28.40
2022-12-24T02:14:13.501Z,29.40
2022-12-24T02:17:59.185Z,28.07
2022-12-24T02:21:30.314Z,30.85
2022-12-24T02:25:06.686Z,29.60
2022-12-24T02:28:22.422Z,28.87
2022-12-24T02:31:40.679Z,31.35
2022-12-24T02:34:55.517Z,31.17
2022-12-24T02:38:05.888Z,30.30
2022-12-24T02:41:15.978Z,29.07
2022-12-24T02:44:22.784Z,28.47
2022-12-24T02:47:28.547Z,31.33
2022-12-24T02:50:34.359Z,28.83
2022-12-24T02:53:40.431Z,27.75
2022-12-24T02:57:30.183Z,28.73
2022-12-24T03:00:34.981Z,29.27
2022-12-24T03:04:13.960Z,31.17
2022-12-24T03:07:23.827Z,31.68
2022-12-24T03:10:46.365Z,32.00
2022-12-24T03:13:51.433Z,29.90
2022-12-24T03:16:56.421Z,31.33
2022-12-24T03:20:03.729Z,31.68
2022-12-24T03:23:09.164Z,32.10
2022-12-24T03:26:17.701Z,32.58
2022-12-24T03:29:23.239Z,32.35
2022-12-24T03:32:28.405Z,31.07
2022-12-24T03:35:33.380Z,31.37
2022-12-24T03:38:39.189Z,33.28
2022-12-24T03:41:44.960Z,31.05
2022-12-24T03:44:50.684Z,34.18
2022-12-24T03:47:56.310Z,32.63
2022-12-24T03:51:01.929Z,32.78
2022-12-24T03:54:08.830Z,33.33
2022-12-24T03:57:14.425Z,32.73
2022-12-24T04:00:21.250Z,34.88
2022-12-24T04:03:27.483Z,32.15
2022-12-24T04:06:32.834Z,34.55
2022-12-24T04:09:38.008Z,32.48
2022-12-24T04:12:43.522Z,32.93
2022-12-24T04:15:55.279Z,33.60
2022-12-24T04:19:00.800Z,34.35
2022-12-24T04:22:06.387Z,32.73
2022-12-24T04:25:13.290Z,34.20
2022-12-24T04:28:18.843Z,33.75
2022-12-24T04:31:27.116Z,34.08
2022-12-24T04:34:33.336Z,34.83
2022-12-24T04:37:39.139Z,33.70
2022-12-24T04:40:45.431Z,35.05
2022-12-24T04:43:50.911Z,35.98
2022-12-24T04:46:57.699Z,32.75
2022-12-24T04:50:03.192Z,33.18
2022-12-24T04:53:08.311Z,33.42
2022-12-24T04:56:13.947Z,30.50
2022-12-24T04:59:20.267Z,31.85
2022-12-24T05:02:26.125Z,33.08
2022-12-24T05:05:32.664Z,36.15
2022-12-24T05:08:38.218Z,34.33
2022-12-24T05:11:44.179Z,31.23
2022-12-24T05:14:48.702Z,31.93
2022-12-24T05:17:54.264Z,31.40
2022-12-24T05:20:59.763Z,33.48
2022-12-24T05:24:22.712Z,34.48
2022-12-24T05:27:28.574Z,33.73
2022-12-24T05:30:33.786Z,34.05
2022-12-24T05:33:40.150Z,34.55
2022-12-24T05:36:46.359Z,29.92
2022-12-24T05:39:51.316Z,30.23
2022-12-24T05:42:56.927Z,30.25
2022-12-24T05:46:04.151Z,29.45
2022-12-24T05:49:09.333Z,30.85
2022-12-24T05:52:14.335Z,30.20
2022-12-24T05:55:20.636Z,32.08
2022-12-24T05:58:26.182Z,31.52
2022-12-24T06:01:31.629Z,32.88
2022-12-24T06:04:36.677Z,31.02
2022-12-24T06:07:41.604Z,32.88
2022-12-24T06:10:47.339Z,32.65
2022-12-24T06:13:53.408Z,33.13
2022-12-24T06:17:00.643Z,31.37
2022-12-24T06:20:06.329Z,29.48
2022-12-24T06:23:11.482Z,29.37
2022-12-24T06:26:17.125Z,31.25
2022-12-24T06:29:22.783Z,31.33
2022-12-24T06:32:28.005Z,31.10
2022-12-24T06:35:35.011Z,31.62
2022-12-24T06:38:40.312Z,30.97
2022-12-24T06:41:46.701Z,29.70
2022-12-24T06:44:51.624Z,31.55
2022-12-24T06:47:57.003Z,31.17
2022-12-24T06:51:02.852Z,31.30
2022-12-24T06:54:08.257Z,29.87
2022-12-24T06:57:14.326Z,30.15
2022-12-24T07:00:23.498Z,32.03
2022-12-24T07:03:30.002Z,31.90
2022-12-24T07:06:41.034Z,30.52
2022-12-24T07:09:46.443Z,32.17
2022-12-24T07:12:52.892Z,32.45
2022-12-24T07:15:58.678Z,32.13
2022-12-24T07:19:05.418Z,32.08
2022-12-24T07:22:15.469Z,31.65
2022-12-24T07:25:18.737Z,33.40
2022-12-24T07:28:28.078Z,32.17
2022-12-24T07:31:32.593Z,32.85
2022-12-24T07:34:37.896Z,31.00
2022-12-24T07:37:43.072Z,33.67
2022-12-24T07:40:49.578Z,33.80
2022-12-24T07:43:56.380Z,33.60
2022-12-24T07:47:02.147Z,32.42
2022-12-24T07:50:07.476Z,32.93
2022-12-24T07:53:12.693Z,31.82
2022-12-24T07:56:18.278Z,33.73
2022-12-24T07:59:27.061Z,33.98
2022-12-24T08:02:32.042Z,28.70
2022-12-24T08:05:37.580Z,30.52
2022-12-24T08:08:51.427Z,29.75
2022-12-24T08:11:58.587Z,28.10
2022-12-24T08:15:04.824Z,31.77
2022-12-24T08:18:10.346Z,30.37
2022-12-24T08:21:15.603Z,30.80
2022-12-24T08:24:21.158Z,28.95
2022-12-24T08:27:25.749Z,30.90
2022-12-24T08:30:31.853Z,28.27
2022-12-24T08:33:36.897Z,28.38
2022-12-24T08:36:42.236Z,28.80
2022-12-24T08:39:49.419Z,27.00
2022-12-24T08:42:54.865Z,28.87
2022-12-24T08:46:05.732Z,26.02
2022-12-24T08:49:11.066Z,27.93
2022-12-24T08:52:16.621Z,27.75
2022-12-24T08:55:23.144Z,27.10
2022-12-24T08:58:28.579Z,28.45
2022-12-24T09:01:34.901Z,26.68
2022-12-24T09:04:41.327Z,26.37
2022-12-24T09:07:46.726Z,26.97
2022-12-24T09:10:53.270Z,27.30
2022-12-24T09:13:58.963Z,29.15
2022-12-24T09:17:04.901Z,24.60
2022-12-24T09:20:10.880Z,26.45
2022-12-24T09:23:16.685Z,25.77
2022-12-24T09:26:39.680Z,24.82
2022-12-24T09:29:47.339Z,24.07
2022-12-24T09:32:52.972Z,25.08
2022-12-24T09:35:58.510Z,25.23
2022-12-24T09:39:05.997Z,26.25
2022-12-24T09:42:40.697Z,24.05
2022-12-24T09:45:50.668Z,25.50
2022-12-24T09:48:59.898Z,26.15
2022-12-24T09:52:15.162Z,18.05
2022-12-24T09:55:36.225Z,25.20
2022-12-24T09:58:54.337Z,27.52
2022-12-24T10:01:59.891Z,23.85
2022-12-24T10:05:05.604Z,24.25
2022-12-24T10:08:36.570Z,24.47
2022-12-24T10:11:56.570Z,24.63
2022-12-24T10:15:29.286Z,23.12
2022-12-24T10:19:10.904Z,23.65
2022-12-24T10:22:39.952Z,24.18
2022-12-24T10:25:50.522Z,23.90
2022-12-24T10:29:08.700Z,22.93
2022-12-24T10:32:28.349Z,22.22
2022-12-24T10:35:54.341Z,24.12
2022-12-24T10:39:00.525Z,21.50
2022-12-24T10:42:09.127Z,23.95
2022-12-24T10:45:18.698Z,21.57
2022-12-24T10:48:26.176Z,20.80
2022-12-24T10:52:13.954Z,19.85
2022-12-24T10:55:36.096Z,20.88
2022-12-24T10:58:42.579Z,20.70
2022-12-24T11:02:02.126Z,20.95
2022-12-24T11:05:07.574Z,22.05
2022-12-24T11:08:18.203Z,19.37
2022-12-24T11:11:27.130Z,20.00
2022-12-24T11:14:35.272Z,22.40
2022-12-24T11:17:41.210Z,21.10
2022-12-24T11:20:48.227Z,21.52
2022-12-24T11:23:53.376Z,21.85
2022-12-24T11:26:59.456Z,21.60
2022-12-24T11:30:11.475Z,17.35
2022-12-24T11:33:25.391Z,19.45
2022-12-24T11:36:30.751Z,16.17
2022-12-24T11:39:38.664Z,20.92
2022-12-24T11:42:49.274Z,20.32
2022-12-24T11:45:55.287Z,19.12
2022-12-24T11:49:07.598Z,20.25
2022-12-24T11:52:29.072Z,20.40
2022-12-24T11:56:07.565Z,22.85
2022-12-24T11:59:44.965Z,20.68
2022-12-24T12:02:57.989Z,19.75
2022-12-24T12:06:03.259Z,20.15
2022-12-24T12:09:13.686Z,20.15
2022-12-24T12:12:35.485Z,20.10
2022-12-24T12:15:54.460Z,20.85
2022-12-24T12:19:10.018Z,21.03
2022-12-24T12:22:13.891Z,21.42
2022-12-24T12:25:19.696Z,22.93
2022-12-24T12:28:49.114Z,20.27
2022-12-24T12:32:02.786Z,21.10
2022-12-24T12:35:32.957Z,18.92
2022-12-24T12:38:42.711Z,18.42
2022-12-24T12:42:05.296Z,21.57
2022-12-24T12:45:27.906Z,19.27
2022-12-24T12:49:15.547Z,18.42
2022-12-24T12:52:45.819Z,18.30
2022-12-24T12:56:24.689Z,19.32
2022-12-24T12:59:52.187Z,20.85
2022-12-24T13:03:25.235Z,21.00
2022-12-24T13:07:00.917Z,21.68
2022-12-24T13:10:31.033Z,22.07
2022-12-24T13:13:51.816Z,20.68
2022-12-24T13:17:13.612Z,21.25
2022-12-24T13:20:44.131Z,19.65
2022-12-24T13:23:49.495Z,21.40
2022-12-24T13:26:55.556Z,21.12
2022-12-24T13:30:38.516Z,20.48
2022-12-24T13:33:55.957Z,17.82
2022-12-24T13:37:19.826Z,22.40
2022-12-24T13:40:32.674Z,19.67
2022-12-24T13:43:37.952Z,22.22
2022-12-24T13:47:12.829Z,21.42
2022-12-24T13:50:43.734Z,21.20
2022-12-24T13:54:00.514Z,21.73
2022-12-24T13:57:06.985Z,22.48
2022-12-24T14:00:28.316Z,22.32
2022-12-24T14:03:39.658Z,21.77
2022-12-24T14:06:50.389Z,22.85
2022-12-24T14:13:03.410Z,23.67
2022-12-24T14:16:16.751Z,22.13
2022-12-24T14:19:40.519Z,23.55
2022-12-24T14:22:58.474Z,22.48
2022-12-24T14:26:04.767Z,23.83
2022-12-24T14:29:15.235Z,23.20
2022-12-24T14:32:30.763Z,23.25
2022-12-24T14:35:53.316Z,24.75
2022-12-24T14:39:00.529Z,24.82
2022-12-24T14:42:43.946Z,23.10
2022-12-24T14:46:03.388Z,23.60
2022-12-24T14:49:23.369Z,24.40
2022-12-24T14:53:04.588Z,22.32
2022-12-24T14:55:59.895Z,24.50
2022-12-24T14:59:08.346Z,25.60
2022-12-24T15:02:15.639Z,23.15
2022-12-24T15:05:35.937Z,23.22
2022-12-24T15:08:58.012Z,24.45
2022-12-24T15:12:06.673Z,23.18
2022-12-24T15:15:12.460Z,23.32
2022-12-24T15:18:17.681Z,24.23
2022-12-24T15:21:25.191Z,24.50
2022-12-24T15:24:45.220Z,24.90
2022-12-24T15:27:52.689Z,24.85
2022-12-24T15:30:57.706Z,27.55
2022-12-24T15:34:03.886Z,24.90
2022-12-24T15:37:16.284Z,25.23
2022-12-24T15:40:26.096Z,25.10
2022-12-24T15:43:32.447Z,26.77
2022-12-24T15:46:38.265Z,25.82
2022-12-24T15:49:48.214Z,25.23
2022-12-24T15:53:19.416Z,24.37
2022-12-24T15:56:22.445Z,23.25
2022-12-24T15:59:44.221Z,22.15
2022-12-24T16:02:54.450Z,23.27
2022-12-24T16:06:01.198Z,23.22
2022-12-24T16:09:05.893Z,23.50
2022-12-24T16:12:10.960Z,23.73
2022-12-24T16:15:16.693Z,23.67
2022-12-24T16:18:22.811Z,22.07
2022-12-24T16:21:39.173Z,21.30
2022-12-24T16:24:44.590Z,22.55
2022-12-24T16:27:49.904Z,20.90
2022-12-24T16:30:54.838Z,21.42
2022-12-24T16:34:00.807Z,20.25
2022-12-24T16:37:05.245Z,19.57
2022-12-24T16:40:16.682Z,20.40
2022-12-24T16:43:35.250Z,24.23
2022-12-24T16:46:41.398Z,22.27
2022-12-24T16:49:47.407Z,23.85
2022-12-24T16:52:52.955Z,22.55
2022-12-24T16:55:58.186Z,25.25
2022-12-24T16:59:04.007Z,22.70
2022-12-24T17:02:14.583Z,22.60
2022-12-24T17:05:17.300Z,21.27
2022-12-24T17:08:23.574Z,20.43
2022-12-24T17:11:29.236Z,18.98
2022-12-24T17:14:34.254Z,19.27
2022-12-24T17:17:42.063Z,19.20
2022-12-24T17:20:47.842Z,18.32
2022-12-24T17:23:54.962Z,18.67
2022-12-24T17:26:54.398Z,18.62
2022-12-24T17:30:00.738Z,18.80
2022-12-24T17:33:10.963Z,17.80
2022-12-24T17:36:13.026Z,17.57
2022-12-24T17:39:22.339Z,17.85
2022-12-24T17:42:24.367Z,17.45
2022-12-24T17:45:29.066Z,16.67
2022-12-24T17:48:34.545Z,17.35
2022-12-24T17:51:46.024Z,18.30
2022-12-24T17:54:51.805Z,16.82
2022-12-24T17:57:57.509Z,16.48
2022-12-24T18:01:04.582Z,17.25
2022-12-24T18:04:09.442Z,15.63
2022-12-24T18:07:14.590Z,17.42
2022-12-24T18:10:21.107Z,15.43
2022-12-24T18:13:26.292Z,18.52
2022-12-24T18:16:44.316Z,17.95
2022-12-24T18:19:50.325Z,18.67
2022-12-24T18:22:55.665Z,15.65
2022-12-24T18:26:02.231Z,18.42
2022-12-24T18:29:12.320Z,15.70
2022-12-24T18:32:20.932Z,18.07
2022-12-24T18:35:27.830Z,16.05
2022-12-24T18:38:33.107Z,17.75
2022-12-24T18:41:40.096Z,19.35
2022-12-24T18:44:46.313Z,20.32
2022-12-24T18:47:53.140Z,18.10
2022-12-24T18:50:59.243Z,17.15
2022-12-24T18:54:05.379Z,17.67
2022-12-24T18:57:11.042Z,18.10
2022-12-24T19:00:17.782Z,18.40
2022-12-24T19:03:24.461Z,17.45
2022-12-24T19:06:30.983Z,17.92
2022-12-24T19:09:36.303Z,17.60
2022-12-24T19:12:41.665Z,17.60
2022-12-24T19:15:46.928Z,15.58
2022-12-24T19:18:53.614Z,18.17
2022-12-24T19:21:58.828Z,16.97
2022-12-24T19:25:05.435Z,16.07
2022-12-24T19:28:13.691Z,15.90
2022-12-24T19:31:26.059Z,17.40
2022-12-24T19:34:32.962Z,16.90
2022-12-24T19:37:39.696Z,16.82
2022-12-24T19:40:45.262Z,17.37
2022-12-24T19:43:59.422Z,16.77
2022-12-24T19:47:05.837Z,18.15
2022-12-24T19:50:10.868Z,18.00
2022-12-24T19:53:17.732Z,18.67
2022-12-24T19:56:23.544Z,16.95
2022-12-24T19:59:29.495Z,17.70
2022-12-24T20:02:35.358Z,18.25
2022-12-24T20:05:42.660Z,17.02
2022-12-24T20:08:50.064Z,15.93
2022-12-24T20:11:55.626Z,17.98
2022-12-24T20:15:01.074Z,18.05
2022-12-24T20:18:06.728Z,19.32
2022-12-24T20:21:16.378Z,18.35
2022-12-24T20:24:21.958Z,17.35
2022-12-24T20:27:20.033Z,19.07
2022-12-24T20:30:27.563Z,20.15
2022-12-24T20:33:34.272Z,17.98
2022-12-24T20:36:40.183Z,17.52
2022-12-24T20:39:46.366Z,17.40
2022-12-24T20:42:52.359Z,19.17
2022-12-24T20:46:04.305Z,19.85
2022-12-24T20:49:10.972Z,19.02
2022-12-24T20:52:16.200Z,20.90
2022-12-24T20:55:24.366Z,20.50
2022-12-24T20:58:31.248Z,20.97
2022-12-24T21:01:39.021Z,19.92
2022-12-24T21:04:44.902Z,21.82
2022-12-24T21:07:50.458Z,19.92
2022-12-24T21:10:57.675Z,20.08
2022-12-24T21:14:03.829Z,20.20
2022-12-24T21:17:15.417Z,20.27
2022-12-24T21:20:19.683Z,19.42
2022-12-24T21:23:24.887Z,20.40
2022-12-24T21:26:30.707Z,19.90
2022-12-24T21:29:35.896Z,20.32
2022-12-24T21:32:42.115Z,20.95
2022-12-24T21:35:47.712Z,19.95
2022-12-24T21:38:53.125Z,21.17
2022-12-24T21:41:58.894Z,20.57
2022-12-24T21:45:03.455Z,20.82
2022-12-24T21:48:11.077Z,20.00
2022-12-24T21:51:15.610Z,19.52
2022-12-24T21:54:30.933Z,19.17
2022-12-24T21:57:54.651Z,20.35
2022-12-24T22:01:00.504Z,19.98
2022-12-24T22:04:05.670Z,18.92
2022-12-24T22:07:28.705Z,18.73
2022-12-24T22:10:51.687Z,20.57
2022-12-24T22:13:58.672Z,20.88
2022-12-24T22:17:05.164Z,20.80
2022-12-24T22:20:10.523Z,18.23
2022-12-24T22:23:16.898Z,19.30
2022-12-24T22:26:32.255Z,20.35
2022-12-24T22:29:37.770Z,20.37
2022-12-24T22:32:43.247Z,20.72
2022-12-24T22:35:48.787Z,22.77
2022-12-24T22:38:53.324Z,21.02
2022-12-24T22:42:00.395Z,19.98
2022-12-24T22:45:05.356Z,19.65
2022-12-24T22:48:10.617Z,21.25
2022-12-24T22:51:18.245Z,19.85
2022-12-24T22:54:23.175Z,20.43
2022-12-24T22:57:28.697Z,20.35
2022-12-24T23:00:56.676Z,20.62
2022-12-24T23:03:55.887Z,19.65
2022-12-24T23:07:02.414Z,18.10
2022-12-24T23:10:08.281Z,20.45
2022-12-24T23:13:32.073Z,20.72
2022-12-24T23:16:37.077Z,20.48
2022-12-24T23:19:42.632Z,20.30
2022-12-24T23:22:48.345Z,20.75
2022-12-24T23:25:54.132Z,21.25
2022-12-24T23:29:00.741Z,20.23
2022-12-24T23:32:06.238Z,20.65
2022-12-24T23:35:11.941Z,21.97
2022-12-24T23:38:18.059Z,19.82
2022-12-24T23:41:24.223Z,18.67
2022-12-24T23:44:32.467Z,19.60
2022-12-24T23:47:37.260Z,20.52
2022-12-24T23:50:44.624Z,19.25
2022-12-24T23:53:49.338Z,19.75
2022-12-24T23:56:57.054Z,21.20
